sensor_id;sensor_type;location;lat;lon;timestamp;temperature;humidity
4187;DHT22;2107;52.306;10.484;2023-09-19T00:02:21;14.50;99.90
4187;DHT22;2107;52.306;10.484;2023-09-19T00:04:47;14.50;99.90
4187;DHT22;2107;52.306;10.484;2023-09-19T00:07:15;14.40;99.90
4187;DHT22;2107;52.306;10.484;2023-09-19T00:09:43;14.40;99.90
4187;DHT22;2107;52.306;10.484;2023-09-19T00:12:09;14.40;99.90
4187;DHT22;2107;52.306;10.484;2023-09-19T00:14:38;14.40;99.90
4187;DHT22;2107;52.306;10.484;2023-09-19T00:17:07;14.40;99.90
4187;DHT22;2107;52.306;10.484;2023-09-19T00:19:35;14.50;99.90
4187;DHT22;2107;52.306;10.484;2023-09-19T00:22:02;14.50;99.90
4187;DHT22;2107;52.306;10.484;2023-09-19T00:24:29;14.50;99.90
4187;DHT22;2107;52.306;10.484;2023-09-19T00:26:57;14.60;99.90
4187;DHT22;2107;52.306;10.484;2023-09-19T00:29:25;14.50;99.90
4187;DHT22;2107;52.306;10.484;2023-09-19T00:31:55;14.50;99.90
4187;DHT22;2107;52.306;10.484;2023-09-19T00:34:23;14.40;99.90
4187;DHT22;2107;52.306;10.484;2023-09-19T00:36:51;14.40;99.90
4187;DHT22;2107;52.306;10.484;2023-09-19T00:39:19;14.40;99.90
4187;DHT22;2107;52.306;10.484;2023-09-19T00:41:47;14.40;99.90
4187;DHT22;2107;52.306;10.484;2023-09-19T00:44:14;14.40;99.90
4187;DHT22;2107;52.306;10.484;2023-09-19T00:46:43;14.30;99.90
4187;DHT22;2107;52.306;10.484;2023-09-19T00:49:13;14.30;99.90
4187;DHT22;2107;52.306;10.484;2023-09-19T00:51:42;14.30;99.90
4187;DHT22;2107;52.306;10.484;2023-09-19T00:54:13;14.40;99.90
4187;DHT22;2107;52.306;10.484;2023-09-19T00:56:44;14.40;99.90
4187;DHT22;2107;52.306;10.484;2023-09-19T00:59:11;14.40;99.90
4187;DHT22;2107;52.306;10.484;2023-09-19T01:01:39;14.50;99.90
4187;DHT22;2107;52.306;10.484;2023-09-19T01:04:06;14.40;99.90
4187;DHT22;2107;52.306;10.484;2023-09-19T01:06:33;14.50;99.90
4187;DHT22;2107;52.306;10.484;2023-09-19T01:09:03;14.50;99.90
4187;DHT22;2107;52.306;10.484;2023-09-19T01:11:35;14.50;99.90
4187;DHT22;2107;52.306;10.484;2023-09-19T01:14:13;14.40;99.90
4187;DHT22;2107;52.306;10.484;2023-09-19T01:16:47;14.50;99.90
4187;DHT22;2107;52.306;10.484;2023-09-19T01:19:44;14.50;99.90
4187;DHT22;2107;52.306;10.484;2023-09-19T01:22:18;14.50;99.90
4187;DHT22;2107;52.306;10.484;2023-09-19T01:25:24;14.50;99.90
4187;DHT22;2107;52.306;10.484;2023-09-19T01:28:06;14.60;99.90
4187;DHT22;2107;52.306;10.484;2023-09-19T01:30:38;14.60;99.90
4187;DHT22;2107;52.306;10.484;2023-09-19T01:33:06;14.60;99.90
4187;DHT22;2107;52.306;10.484;2023-09-19T01:35:33;14.60;99.90
4187;DHT22;2107;52.306;10.484;2023-09-19T01:38:04;14.60;99.90
4187;DHT22;2107;52.306;10.484;2023-09-19T01:40:33;14.60;99.90
4187;DHT22;2107;52.306;10.484;2023-09-19T01:43:09;14.70;99.90
4187;DHT22;2107;52.306;10.484;2023-09-19T01:45:46;14.70;99.90
4187;DHT22;2107;52.306;10.484;2023-09-19T01:48:21;14.70;99.90
4187;DHT22;2107;52.306;10.484;2023-09-19T01:50:56;14.60;99.90
4187;DHT22;2107;52.306;10.484;2023-09-19T01:53:27;14.70;99.90
4187;DHT22;2107;52.306;10.484;2023-09-19T01:55:57;14.70;99.90
4187;DHT22;2107;52.306;10.484;2023-09-19T01:58:29;14.70;99.90
4187;DHT22;2107;52.306;10.484;2023-09-19T02:01:00;14.70;99.90
4187;DHT22;2107;52.306;10.484;2023-09-19T02:03:28;14.70;99.90
4187;DHT22;2107;52.306;10.484;2023-09-19T02:05:55;14.80;99.90
4187;DHT22;2107;52.306;10.484;2023-09-19T02:08:23;14.70;99.90
4187;DHT22;2107;52.306;10.484;2023-09-19T02:10:50;14.80;99.90
4187;DHT22;2107;52.306;10.484;2023-09-19T02:13:19;14.80;99.90
4187;DHT22;2107;52.306;10.484;2023-09-19T02:15:46;14.80;99.90
4187;DHT22;2107;52.306;10.484;2023-09-19T02:18:14;14.80;99.90
4187;DHT22;2107;52.306;10.484;2023-09-19T02:20:42;14.70;99.90
4187;DHT22;2107;52.306;10.484;2023-09-19T02:23:10;14.70;99.90
4187;DHT22;2107;52.306;10.484;2023-09-19T02:25:37;14.60;99.90
4187;DHT22;2107;52.306;10.484;2023-09-19T02:28:05;14.60;99.90
4187;DHT22;2107;52.306;10.484;2023-09-19T02:30:33;14.60;99.90
4187;DHT22;2107;52.306;10.484;2023-09-19T02:33:01;14.60;99.90
4187;DHT22;2107;52.306;10.484;2023-09-19T02:35:30;14.50;99.90
4187;DHT22;2107;52.306;10.484;2023-09-19T02:38:00;14.50;99.90
4187;DHT22;2107;52.306;10.484;2023-09-19T02:40:27;14.50;99.90
4187;DHT22;2107;52.306;10.484;2023-09-19T02:42:55;14.50;99.90
4187;DHT22;2107;52.306;10.484;2023-09-19T02:45:24;14.50;99.90
4187;DHT22;2107;52.306;10.484;2023-09-19T02:47:51;14.50;99.90
4187;DHT22;2107;52.306;10.484;2023-09-19T02:50:19;14.50;99.90
4187;DHT22;2107;52.306;10.484;2023-09-19T02:52:47;14.40;99.90
4187;DHT22;2107;52.306;10.484;2023-09-19T02:55:15;14.40;99.90
4187;DHT22;2107;52.306;10.484;2023-09-19T02:57:49;14.40;99.90
4187;DHT22;2107;52.306;10.484;2023-09-19T03:00:18;14.30;99.90
4187;DHT22;2107;52.306;10.484;2023-09-19T03:02:46;14.30;99.90
4187;DHT22;2107;52.306;10.484;2023-09-19T03:05:13;14.30;99.90
4187;DHT22;2107;52.306;10.484;2023-09-19T03:07:41;14.30;99.90
4187;DHT22;2107;52.306;10.484;2023-09-19T03:10:10;14.20;99.90
4187;DHT22;2107;52.306;10.484;2023-09-19T03:12:37;14.20;99.90
4187;DHT22;2107;52.306;10.484;2023-09-19T03:15:06;14.20;99.90
4187;DHT22;2107;52.306;10.484;2023-09-19T03:17:34;14.20;99.90
4187;DHT22;2107;52.306;10.484;2023-09-19T03:20:01;14.10;99.90
4187;DHT22;2107;52.306;10.484;2023-09-19T03:22:29;14.00;99.90
4187;DHT22;2107;52.306;10.484;2023-09-19T03:24:57;14.00;99.90
4187;DHT22;2107;52.306;10.484;2023-09-19T03:27:25;13.90;99.90
4187;DHT22;2107;52.306;10.484;2023-09-19T03:29:52;13.80;99.90
4187;DHT22;2107;52.306;10.484;2023-09-19T03:32:19;13.80;99.90
4187;DHT22;2107;52.306;10.484;2023-09-19T03:34:46;13.80;99.90
4187;DHT22;2107;52.306;10.484;2023-09-19T03:37:14;13.70;99.90
4187;DHT22;2107;52.306;10.484;2023-09-19T03:39:41;13.70;99.90
4187;DHT22;2107;52.306;10.484;2023-09-19T03:42:08;13.80;99.90
4187;DHT22;2107;52.306;10.484;2023-09-19T03:44:36;13.80;99.90
4187;DHT22;2107;52.306;10.484;2023-09-19T03:47:04;13.80;99.90
4187;DHT22;2107;52.306;10.484;2023-09-19T03:49:32;13.90;99.90
4187;DHT22;2107;52.306;10.484;2023-09-19T03:51:59;14.00;99.90
4187;DHT22;2107;52.306;10.484;2023-09-19T03:54:26;13.90;99.90
4187;DHT22;2107;52.306;10.484;2023-09-19T03:56:53;13.90;99.90
4187;DHT22;2107;52.306;10.484;2023-09-19T03:59:20;13.90;99.90
4187;DHT22;2107;52.306;10.484;2023-09-19T04:01:48;13.90;99.90
4187;DHT22;2107;52.306;10.484;2023-09-19T04:04:15;13.80;99.90
4187;DHT22;2107;52.306;10.484;2023-09-19T04:06:44;13.80;99.90
4187;DHT22;2107;52.306;10.484;2023-09-19T04:09:11;13.70;99.90
4187;DHT22;2107;52.306;10.484;2023-09-19T04:11:38;13.60;99.90
4187;DHT22;2107;52.306;10.484;2023-09-19T04:14:05;13.60;99.90
4187;DHT22;2107;52.306;10.484;2023-09-19T04:16:32;13.60;99.90
4187;DHT22;2107;52.306;10.484;2023-09-19T04:19:00;13.70;99.90
4187;DHT22;2107;52.306;10.484;2023-09-19T04:21:28;13.70;99.90
4187;DHT22;2107;52.306;10.484;2023-09-19T04:23:55;13.70;99.90
4187;DHT22;2107;52.306;10.484;2023-09-19T04:26:22;13.70;99.90
4187;DHT22;2107;52.306;10.484;2023-09-19T04:28:48;13.70;99.90
4187;DHT22;2107;52.306;10.484;2023-09-19T04:31:16;13.80;99.90
4187;DHT22;2107;52.306;10.484;2023-09-19T04:33:45;13.80;99.90
4187;DHT22;2107;52.306;10.484;2023-09-19T04:36:13;13.90;99.90
4187;DHT22;2107;52.306;10.484;2023-09-19T04:38:40;13.90;99.90
4187;DHT22;2107;52.306;10.484;2023-09-19T04:41:07;14.00;99.90
4187;DHT22;2107;52.306;10.484;2023-09-19T04:43:34;14.00;99.90
4187;DHT22;2107;52.306;10.484;2023-09-19T04:46:00;14.00;99.90
4187;DHT22;2107;52.306;10.484;2023-09-19T04:48:28;14.00;99.90
4187;DHT22;2107;52.306;10.484;2023-09-19T04:50:55;14.10;99.90
4187;DHT22;2107;52.306;10.484;2023-09-19T04:53:27;14.20;99.90
4187;DHT22;2107;52.306;10.484;2023-09-19T04:55:54;14.20;99.90
4187;DHT22;2107;52.306;10.484;2023-09-19T04:58:21;14.30;99.90
4187;DHT22;2107;52.306;10.484;2023-09-19T05:00:48;14.40;99.90
4187;DHT22;2107;52.306;10.484;2023-09-19T05:03:16;14.40;99.90
4187;DHT22;2107;52.306;10.484;2023-09-19T05:05:46;14.40;99.90
4187;DHT22;2107;52.306;10.484;2023-09-19T05:08:13;14.50;99.90
4187;DHT22;2107;52.306;10.484;2023-09-19T05:10:42;14.60;99.90
4187;DHT22;2107;52.306;10.484;2023-09-19T05:13:09;14.60;99.90
4187;DHT22;2107;52.306;10.484;2023-09-19T05:15:36;14.50;99.90
4187;DHT22;2107;52.306;10.484;2023-09-19T05:18:03;14.50;99.90
4187;DHT22;2107;52.306;10.484;2023-09-19T05:20:32;14.50;99.90
4187;DHT22;2107;52.306;10.484;2023-09-19T05:23:02;14.50;99.90
4187;DHT22;2107;52.306;10.484;2023-09-19T05:25:34;14.50;99.90
4187;DHT22;2107;52.306;10.484;2023-09-19T05:28:05;14.50;99.90
4187;DHT22;2107;52.306;10.484;2023-09-19T05:30:32;14.40;99.90
4187;DHT22;2107;52.306;10.484;2023-09-19T05:33:01;14.30;99.90
4187;DHT22;2107;52.306;10.484;2023-09-19T05:35:30;14.30;99.90
4187;DHT22;2107;52.306;10.484;2023-09-19T05:37:57;14.20;99.90
4187;DHT22;2107;52.306;10.484;2023-09-19T05:40:25;14.10;99.90
4187;DHT22;2107;52.306;10.484;2023-09-19T05:42:52;14.00;99.90
4187;DHT22;2107;52.306;10.484;2023-09-19T05:45:20;14.00;99.90
4187;DHT22;2107;52.306;10.484;2023-09-19T05:47:48;14.00;99.90
4187;DHT22;2107;52.306;10.484;2023-09-19T05:50:15;14.00;99.90
4187;DHT22;2107;52.306;10.484;2023-09-19T05:52:50;14.00;99.90
4187;DHT22;2107;52.306;10.484;2023-09-19T05:55:18;14.00;99.90
4187;DHT22;2107;52.306;10.484;2023-09-19T05:57:49;14.10;99.90
4187;DHT22;2107;52.306;10.484;2023-09-19T06:00:17;14.10;99.90
4187;DHT22;2107;52.306;10.484;2023-09-19T06:02:50;14.20;99.90
4187;DHT22;2107;52.306;10.484;2023-09-19T06:05:16;14.20;99.90
4187;DHT22;2107;52.306;10.484;2023-09-19T06:07:42;14.30;99.90
4187;DHT22;2107;52.306;10.484;2023-09-19T06:10:09;14.20;99.90
4187;DHT22;2107;52.306;10.484;2023-09-19T06:12:38;14.10;99.90
4187;DHT22;2107;52.306;10.484;2023-09-19T06:15:06;14.20;99.90
4187;DHT22;2107;52.306;10.484;2023-09-19T06:17:34;14.20;99.90
4187;DHT22;2107;52.306;10.484;2023-09-19T06:20:05;14.30;99.90
4187;DHT22;2107;52.306;10.484;2023-09-19T06:22:38;14.40;99.90
4187;DHT22;2107;52.306;10.484;2023-09-19T06:25:07;14.40;99.90
4187;DHT22;2107;52.306;10.484;2023-09-19T06:27:37;14.60;99.90
4187;DHT22;2107;52.306;10.484;2023-09-19T06:30:06;14.90;99.90
4187;DHT22;2107;52.306;10.484;2023-09-19T06:32:33;15.10;99.90
4187;DHT22;2107;52.306;10.484;2023-09-19T06:35:00;15.30;99.90
4187;DHT22;2107;52.306;10.484;2023-09-19T06:37:29;15.50;99.90
4187;DHT22;2107;52.306;10.484;2023-09-19T06:39:57;15.70;99.90
4187;DHT22;2107;52.306;10.484;2023-09-19T06:42:24;15.70;99.90
4187;DHT22;2107;52.306;10.484;2023-09-19T06:44:53;15.90;99.90
4187;DHT22;2107;52.306;10.484;2023-09-19T06:47:21;16.00;99.90
4187;DHT22;2107;52.306;10.484;2023-09-19T06:49:51;16.20;99.90
4187;DHT22;2107;52.306;10.484;2023-09-19T06:52:18;16.30;99.90
4187;DHT22;2107;52.306;10.484;2023-09-19T06:54:49;16.30;99.90
4187;DHT22;2107;52.306;10.484;2023-09-19T06:57:18;16.30;99.90
4187;DHT22;2107;52.306;10.484;2023-09-19T06:59:45;16.60;99.90
4187;DHT22;2107;52.306;10.484;2023-09-19T07:02:12;16.70;99.90
4187;DHT22;2107;52.306;10.484;2023-09-19T07:04:39;16.70;99.90
4187;DHT22;2107;52.306;10.484;2023-09-19T07:07:06;16.80;99.90
4187;DHT22;2107;52.306;10.484;2023-09-19T07:09:34;17.00;99.90
4187;DHT22;2107;52.306;10.484;2023-09-19T07:12:03;17.10;99.90
4187;DHT22;2107;52.306;10.484;2023-09-19T07:14:30;17.00;99.90
4187;DHT22;2107;52.306;10.484;2023-09-19T07:16:57;17.00;99.90
4187;DHT22;2107;52.306;10.484;2023-09-19T07:19:25;17.10;99.90
4187;DHT22;2107;52.306;10.484;2023-09-19T07:21:54;17.20;99.90
4187;DHT22;2107;52.306;10.484;2023-09-19T07:24:21;17.30;99.90
4187;DHT22;2107;52.306;10.484;2023-09-19T07:26:49;17.30;99.90
4187;DHT22;2107;52.306;10.484;2023-09-19T07:29:18;17.50;99.90
4187;DHT22;2107;52.306;10.484;2023-09-19T07:31:44;17.50;99.90
4187;DHT22;2107;52.306;10.484;2023-09-19T07:34:12;17.70;99.90
4187;DHT22;2107;52.306;10.484;2023-09-19T07:36:40;18.00;99.90
4187;DHT22;2107;52.306;10.484;2023-09-19T07:39:08;18.00;99.90
4187;DHT22;2107;52.306;10.484;2023-09-19T07:41:34;18.10;99.90
4187;DHT22;2107;52.306;10.484;2023-09-19T07:44:02;18.30;99.90
4187;DHT22;2107;52.306;10.484;2023-09-19T07:46:30;18.20;99.90
4187;DHT22;2107;52.306;10.484;2023-09-19T07:48:57;18.20;99.90
4187;DHT22;2107;52.306;10.484;2023-09-19T07:51:24;18.20;99.90
4187;DHT22;2107;52.306;10.484;2023-09-19T07:53:52;18.40;99.90
4187;DHT22;2107;52.306;10.484;2023-09-19T07:56:20;18.30;99.90
4187;DHT22;2107;52.306;10.484;2023-09-19T07:58:48;18.70;99.90
4187;DHT22;2107;52.306;10.484;2023-09-19T08:01:15;18.90;99.90
4187;DHT22;2107;52.306;10.484;2023-09-19T08:03:43;19.00;99.90
4187;DHT22;2107;52.306;10.484;2023-09-19T08:06:11;18.80;99.90
4187;DHT22;2107;52.306;10.484;2023-09-19T08:08:40;18.50;99.90
4187;DHT22;2107;52.306;10.484;2023-09-19T08:11:07;18.20;99.90
4187;DHT22;2107;52.306;10.484;2023-09-19T08:13:37;18.50;99.90
4187;DHT22;2107;52.306;10.484;2023-09-19T08:16:07;18.30;99.90
4187;DHT22;2107;52.306;10.484;2023-09-19T08:18:33;18.20;99.90
4187;DHT22;2107;52.306;10.484;2023-09-19T08:21:02;18.40;99.90
4187;DHT22;2107;52.306;10.484;2023-09-19T08:23:29;18.70;99.90
4187;DHT22;2107;52.306;10.484;2023-09-19T08:25:57;18.60;99.90
4187;DHT22;2107;52.306;10.484;2023-09-19T08:28:27;18.60;99.90
4187;DHT22;2107;52.306;10.484;2023-09-19T08:30:55;18.70;99.90
4187;DHT22;2107;52.306;10.484;2023-09-19T08:33:23;18.60;99.90
4187;DHT22;2107;52.306;10.484;2023-09-19T08:35:50;18.60;99.90
4187;DHT22;2107;52.306;10.484;2023-09-19T08:38:18;18.30;99.90
4187;DHT22;2107;52.306;10.484;2023-09-19T08:40:45;18.10;99.90
4187;DHT22;2107;52.306;10.484;2023-09-19T08:43:12;18.00;99.90
4187;DHT22;2107;52.306;10.484;2023-09-19T08:45:39;18.10;99.90
4187;DHT22;2107;52.306;10.484;2023-09-19T08:48:19;18.20;99.90
4187;DHT22;2107;52.306;10.484;2023-09-19T08:50:51;18.50;99.90
4187;DHT22;2107;52.306;10.484;2023-09-19T08:53:26;18.30;99.90
4187;DHT22;2107;52.306;10.484;2023-09-19T08:55:55;18.40;99.90
4187;DHT22;2107;52.306;10.484;2023-09-19T08:58:26;18.50;99.90
4187;DHT22;2107;52.306;10.484;2023-09-19T09:00:55;18.80;99.90
4187;DHT22;2107;52.306;10.484;2023-09-19T09:03:23;18.90;99.90
4187;DHT22;2107;52.306;10.484;2023-09-19T09:05:51;19.40;99.90
4187;DHT22;2107;52.306;10.484;2023-09-19T09:08:20;19.30;99.90
4187;DHT22;2107;52.306;10.484;2023-09-19T09:10:48;19.60;99.90
4187;DHT22;2107;52.306;10.484;2023-09-19T09:13:17;19.60;99.90
4187;DHT22;2107;52.306;10.484;2023-09-19T09:15:44;19.60;99.90
4187;DHT22;2107;52.306;10.484;2023-09-19T09:18:11;19.90;99.90
4187;DHT22;2107;52.306;10.484;2023-09-19T09:20:38;19.60;99.90
4187;DHT22;2107;52.306;10.484;2023-09-19T09:23:06;19.70;99.90
4187;DHT22;2107;52.306;10.484;2023-09-19T09:25:52;19.30;99.90
4187;DHT22;2107;52.306;10.484;2023-09-19T09:28:23;19.30;99.90
4187;DHT22;2107;52.306;10.484;2023-09-19T09:30:50;18.70;99.90
4187;DHT22;2107;52.306;10.484;2023-09-19T09:33:17;19.20;99.90
4187;DHT22;2107;52.306;10.484;2023-09-19T09:35:48;19.30;99.90
4187;DHT22;2107;52.306;10.484;2023-09-19T09:38:18;19.40;99.90
4187;DHT22;2107;52.306;10.484;2023-09-19T09:40:49;19.60;99.90
4187;DHT22;2107;52.306;10.484;2023-09-19T09:43:33;19.70;99.90
4187;DHT22;2107;52.306;10.484;2023-09-19T09:46:12;19.50;99.90
4187;DHT22;2107;52.306;10.484;2023-09-19T09:48:57;19.40;99.90
4187;DHT22;2107;52.306;10.484;2023-09-19T09:51:47;19.10;99.90
4187;DHT22;2107;52.306;10.484;2023-09-19T09:54:23;18.50;99.90
4187;DHT22;2107;52.306;10.484;2023-09-19T09:56:54;18.50;99.90
4187;DHT22;2107;52.306;10.484;2023-09-19T09:59:44;18.70;99.90
4187;DHT22;2107;52.306;10.484;2023-09-19T10:02:13;18.70;99.90
4187;DHT22;2107;52.306;10.484;2023-09-19T10:04:46;19.00;99.90
4187;DHT22;2107;52.306;10.484;2023-09-19T10:07:28;19.50;99.90
4187;DHT22;2107;52.306;10.484;2023-09-19T10:09:59;19.90;99.90
4187;DHT22;2107;52.306;10.484;2023-09-19T10:12:38;19.70;99.90
4187;DHT22;2107;52.306;10.484;2023-09-19T10:15:07;19.90;99.90
4187;DHT22;2107;52.306;10.484;2023-09-19T10:17:37;20.20;99.90
4187;DHT22;2107;52.306;10.484;2023-09-19T10:20:09;20.10;99.90
4187;DHT22;2107;52.306;10.484;2023-09-19T10:22:48;19.50;99.90
4187;DHT22;2107;52.306;10.484;2023-09-19T10:25:25;19.70;99.90
4187;DHT22;2107;52.306;10.484;2023-09-19T10:27:54;19.80;99.90
4187;DHT22;2107;52.306;10.484;2023-09-19T10:30:24;19.80;99.90
4187;DHT22;2107;52.306;10.484;2023-09-19T10:32:58;19.70;99.90
4187;DHT22;2107;52.306;10.484;2023-09-19T10:35:26;19.90;99.90
4187;DHT22;2107;52.306;10.484;2023-09-19T10:37:56;19.80;99.90
4187;DHT22;2107;52.306;10.484;2023-09-19T10:40:24;20.20;99.90
4187;DHT22;2107;52.306;10.484;2023-09-19T10:43:01;20.30;99.90
4187;DHT22;2107;52.306;10.484;2023-09-19T10:45:32;19.90;99.90
4187;DHT22;2107;52.306;10.484;2023-09-19T10:47:59;20.20;99.90
4187;DHT22;2107;52.306;10.484;2023-09-19T10:50:35;20.00;99.90
4187;DHT22;2107;52.306;10.484;2023-09-19T10:53:05;19.90;99.90
4187;DHT22;2107;52.306;10.484;2023-09-19T10:55:34;19.80;99.90
4187;DHT22;2107;52.306;10.484;2023-09-19T10:58:02;19.80;99.90
4187;DHT22;2107;52.306;10.484;2023-09-19T11:01:02;19.70;99.90
4187;DHT22;2107;52.306;10.484;2023-09-19T11:03:36;18.90;99.90
4187;DHT22;2107;52.306;10.484;2023-09-19T11:06:11;19.20;99.90
4187;DHT22;2107;52.306;10.484;2023-09-19T11:09:06;19.30;99.90
4187;DHT22;2107;52.306;10.484;2023-09-19T11:11:48;19.80;99.90
4187;DHT22;2107;52.306;10.484;2023-09-19T11:14:41;20.30;99.90
4187;DHT22;2107;52.306;10.484;2023-09-19T11:17:33;20.50;99.90
4187;DHT22;2107;52.306;10.484;2023-09-19T11:20:18;20.40;99.90
4187;DHT22;2107;52.306;10.484;2023-09-19T11:23:19;20.20;99.90
4187;DHT22;2107;52.306;10.484;2023-09-19T11:25:50;20.40;99.90
4187;DHT22;2107;52.306;10.484;2023-09-19T11:28:32;20.50;99.90
4187;DHT22;2107;52.306;10.484;2023-09-19T11:31:00;20.40;99.90
4187;DHT22;2107;52.306;10.484;2023-09-19T11:33:48;20.20;99.90
4187;DHT22;2107;52.306;10.484;2023-09-19T11:36:16;20.40;99.90
4187;DHT22;2107;52.306;10.484;2023-09-19T11:38:58;20.40;99.90
4187;DHT22;2107;52.306;10.484;2023-09-19T11:41:40;19.90;99.90
4187;DHT22;2107;52.306;10.484;2023-09-19T11:44:31;20.10;99.90
4187;DHT22;2107;52.306;10.484;2023-09-19T11:46:59;20.30;99.90
4187;DHT22;2107;52.306;10.484;2023-09-19T11:49:31;20.50;99.90
4187;DHT22;2107;52.306;10.484;2023-09-19T11:52:00;20.60;99.90
4187;DHT22;2107;52.306;10.484;2023-09-19T11:54:30;20.20;99.90
4187;DHT22;2107;52.306;10.484;2023-09-19T11:56:59;20.30;99.90
4187;DHT22;2107;52.306;10.484;2023-09-19T11:59:27;20.10;99.90
4187;DHT22;2107;52.306;10.484;2023-09-19T12:01:56;20.60;99.90
4187;DHT22;2107;52.306;10.484;2023-09-19T12:04:38;21.20;99.90
4187;DHT22;2107;52.306;10.484;2023-09-19T12:07:07;21.10;99.90
4187;DHT22;2107;52.306;10.484;2023-09-19T12:09:40;20.20;99.90
4187;DHT22;2107;52.306;10.484;2023-09-19T12:12:09;20.10;99.90
4187;DHT22;2107;52.306;10.484;2023-09-19T12:14:38;20.00;99.90
4187;DHT22;2107;52.306;10.484;2023-09-19T12:17:07;20.20;99.90
4187;DHT22;2107;52.306;10.484;2023-09-19T12:19:34;20.20;99.90
4187;DHT22;2107;52.306;10.484;2023-09-19T12:22:03;20.20;99.90
4187;DHT22;2107;52.306;10.484;2023-09-19T12:24:31;20.20;99.90
4187;DHT22;2107;52.306;10.484;2023-09-19T12:27:02;20.20;99.90
4187;DHT22;2107;52.306;10.484;2023-09-19T12:29:31;20.50;99.90
4187;DHT22;2107;52.306;10.484;2023-09-19T12:32:00;20.90;99.90
4187;DHT22;2107;52.306;10.484;2023-09-19T12:34:30;21.10;99.90
4187;DHT22;2107;52.306;10.484;2023-09-19T12:37:06;21.20;99.90
4187;DHT22;2107;52.306;10.484;2023-09-19T12:39:40;21.20;99.90
4187;DHT22;2107;52.306;10.484;2023-09-19T12:42:10;20.90;99.90
4187;DHT22;2107;52.306;10.484;2023-09-19T12:44:41;21.40;99.90
4187;DHT22;2107;52.306;10.484;2023-09-19T12:47:11;21.20;99.90
4187;DHT22;2107;52.306;10.484;2023-09-19T12:50:07;21.20;99.90
4187;DHT22;2107;52.306;10.484;2023-09-19T12:52:41;21.40;99.90
4187;DHT22;2107;52.306;10.484;2023-09-19T12:55:20;21.80;99.90
4187;DHT22;2107;52.306;10.484;2023-09-19T12:57:59;21.40;99.90
4187;DHT22;2107;52.306;10.484;2023-09-19T13:00:34;21.60;99.90
4187;DHT22;2107;52.306;10.484;2023-09-19T13:03:15;21.40;99.90
4187;DHT22;2107;52.306;10.484;2023-09-19T13:05:51;21.50;99.90
4187;DHT22;2107;52.306;10.484;2023-09-19T13:08:23;20.90;99.90
4187;DHT22;2107;52.306;10.484;2023-09-19T13:11:09;20.80;99.90
4187;DHT22;2107;52.306;10.484;2023-09-19T13:13:39;20.50;99.90
4187;DHT22;2107;52.306;10.484;2023-09-19T13:16:06;20.70;99.90
4187;DHT22;2107;52.306;10.484;2023-09-19T13:18:45;20.90;99.90
4187;DHT22;2107;52.306;10.484;2023-09-19T13:21:13;20.90;99.90
4187;DHT22;2107;52.306;10.484;2023-09-19T13:23:51;21.10;99.90
4187;DHT22;2107;52.306;10.484;2023-09-19T13:26:18;21.00;99.90
4187;DHT22;2107;52.306;10.484;2023-09-19T13:28:45;20.90;99.90
4187;DHT22;2107;52.306;10.484;2023-09-19T13:31:13;21.10;99.90
4187;DHT22;2107;52.306;10.484;2023-09-19T13:33:44;21.10;99.90
4187;DHT22;2107;52.306;10.484;2023-09-19T13:36:11;21.50;99.90
4187;DHT22;2107;52.306;10.484;2023-09-19T13:38:38;21.20;99.90
4187;DHT22;2107;52.306;10.484;2023-09-19T13:41:07;21.00;99.90
4187;DHT22;2107;52.306;10.484;2023-09-19T13:43:35;21.10;99.90
4187;DHT22;2107;52.306;10.484;2023-09-19T13:46:02;21.60;99.90
4187;DHT22;2107;52.306;10.484;2023-09-19T13:48:29;21.60;99.90
4187;DHT22;2107;52.306;10.484;2023-09-19T13:50:56;21.50;99.90
4187;DHT22;2107;52.306;10.484;2023-09-19T13:53:23;21.70;99.90
4187;DHT22;2107;52.306;10.484;2023-09-19T13:55:51;22.10;99.90
4187;DHT22;2107;52.306;10.484;2023-09-19T13:58:19;22.70;99.90
4187;DHT22;2107;52.306;10.484;2023-09-19T14:00:49;23.10;99.90
4187;DHT22;2107;52.306;10.484;2023-09-19T14:03:16;22.50;99.90
4187;DHT22;2107;52.306;10.484;2023-09-19T14:05:46;22.90;99.90
4187;DHT22;2107;52.306;10.484;2023-09-19T14:08:14;22.40;99.90
4187;DHT22;2107;52.306;10.484;2023-09-19T14:10:41;23.00;99.90
4187;DHT22;2107;52.306;10.484;2023-09-19T14:13:08;24.30;99.40
4187;DHT22;2107;52.306;10.484;2023-09-19T14:15:38;23.00;97.70
4187;DHT22;2107;52.306;10.484;2023-09-19T14:18:05;23.40;99.10
4187;DHT22;2107;52.306;10.484;2023-09-19T14:20:32;22.90;98.20
4187;DHT22;2107;52.306;10.484;2023-09-19T14:22:58;22.80;98.60
4187;DHT22;2107;52.306;10.484;2023-09-19T14:25:25;23.30;97.90
4187;DHT22;2107;52.306;10.484;2023-09-19T14:27:52;23.90;96.80
4187;DHT22;2107;52.306;10.484;2023-09-19T14:30:19;23.70;97.20
4187;DHT22;2107;52.306;10.484;2023-09-19T14:32:48;23.40;97.20
4187;DHT22;2107;52.306;10.484;2023-09-19T14:35:14;24.20;96.50
4187;DHT22;2107;52.306;10.484;2023-09-19T14:37:42;24.60;95.50
4187;DHT22;2107;52.306;10.484;2023-09-19T14:40:09;23.80;95.60
4187;DHT22;2107;52.306;10.484;2023-09-19T14:42:39;23.40;95.50
4187;DHT22;2107;52.306;10.484;2023-09-19T14:45:06;23.70;96.50
4187;DHT22;2107;52.306;10.484;2023-09-19T14:47:34;24.20;94.20
4187;DHT22;2107;52.306;10.484;2023-09-19T14:50:03;23.90;94.10
4187;DHT22;2107;52.306;10.484;2023-09-19T14:52:32;23.70;94.30
4187;DHT22;2107;52.306;10.484;2023-09-19T14:54:59;23.50;95.10
4187;DHT22;2107;52.306;10.484;2023-09-19T14:57:27;23.40;94.80
4187;DHT22;2107;52.306;10.484;2023-09-19T14:59:54;23.00;95.10
4187;DHT22;2107;52.306;10.484;2023-09-19T15:02:21;23.10;95.70
4187;DHT22;2107;52.306;10.484;2023-09-19T15:04:48;22.60;96.00
4187;DHT22;2107;52.306;10.484;2023-09-19T15:07:17;22.30;95.90
4187;DHT22;2107;52.306;10.484;2023-09-19T15:09:45;22.10;95.70
4187;DHT22;2107;52.306;10.484;2023-09-19T15:12:12;21.40;97.20
4187;DHT22;2107;52.306;10.484;2023-09-19T15:14:40;21.00;97.50
4187;DHT22;2107;52.306;10.484;2023-09-19T15:17:07;20.90;98.10
4187;DHT22;2107;52.306;10.484;2023-09-19T15:19:34;21.10;98.00
4187;DHT22;2107;52.306;10.484;2023-09-19T15:22:03;20.60;98.30
4187;DHT22;2107;52.306;10.484;2023-09-19T15:24:32;20.50;99.70
4187;DHT22;2107;52.306;10.484;2023-09-19T15:26:58;20.10;99.90
4187;DHT22;2107;52.306;10.484;2023-09-19T15:29:25;19.90;99.80
4187;DHT22;2107;52.306;10.484;2023-09-19T15:31:54;19.90;99.90
4187;DHT22;2107;52.306;10.484;2023-09-19T15:34:22;19.70;99.90
4187;DHT22;2107;52.306;10.484;2023-09-19T15:36:49;19.80;99.90
4187;DHT22;2107;52.306;10.484;2023-09-19T15:39:17;19.80;99.90
4187;DHT22;2107;52.306;10.484;2023-09-19T15:41:46;19.80;99.90
4187;DHT22;2107;52.306;10.484;2023-09-19T15:44:16;19.80;99.90
4187;DHT22;2107;52.306;10.484;2023-09-19T15:46:44;19.80;99.90
4187;DHT22;2107;52.306;10.484;2023-09-19T15:49:11;19.80;99.90
4187;DHT22;2107;52.306;10.484;2023-09-19T15:51:39;19.90;99.90
4187;DHT22;2107;52.306;10.484;2023-09-19T15:54:08;19.80;99.90
4187;DHT22;2107;52.306;10.484;2023-09-19T15:56:36;19.90;99.90
4187;DHT22;2107;52.306;10.484;2023-09-19T15:59:05;19.80;99.90
4187;DHT22;2107;52.306;10.484;2023-09-19T16:01:31;19.80;99.90
4187;DHT22;2107;52.306;10.484;2023-09-19T16:03:58;19.60;99.90